Monday, January 21, 2019, 5:36 PM EST
Back to Local

KIZG, Fryeburg Eastern Slopes Rgnl

Location: Fryeburg, ME, United States Lat: 43.983
Local Time: 5:36 PM EST (22:36 GMT) Lon: -70.95
Time Zone: US/Eastern Elev: 452 ft

Show me the last for .
Show Decoded

2019-01-21 16:54 METAR KIZG 212154Z AUTO VRB04KT 9SM FEW055 OVC100 M18/M25 A2983 RMK AO2 SLP113
                 T11831250 $ =
2019-01-21 15:54 METAR KIZG 212054Z AUTO 31005G14KT 9SM BKN042 OVC060 M18/M26 A2978 RMK AO2 SNE52
                 SLP096 P0000 60000 T11781256 53033 $ =
2019-01-21 14:54 METAR KIZG 211954Z AUTO 27008G16KT 240V300 7SM -SN BKN041 OVC050 M17/M26 A2974
                 RMK AO2 SNB51 SLP083 P0000 T11721256 $ =
2019-01-21 13:54 METAR KIZG 211854Z AUTO VRB06KT 10SM BKN050 OVC090 M16/M26 A2970 RMK AO2 SLP071
                 T11561261 $ =
2019-01-21 12:54 METAR KIZG 211754Z AUTO 34006KT 10SM SCT080 OVC095 M15/M26 A2968 RMK AO2
                 SNB22E31 SLP062 P0000 60000 T11501256 11144 21161 51009 $ =
2019-01-21 11:54 METAR KIZG 211654Z AUTO 28006KT 10SM BKN045 OVC055 M15/M24 A2967 RMK AO2 SLP058
                 T11501244 =
2019-01-21 10:54 METAR KIZG 211554Z AUTO 28008KT 10SM BKN060 OVC070 M16/M26 A2968 RMK AO2 SLP060
                 T11561256 =
2019-01-21 09:54 METAR KIZG 211454Z AUTO 26006KT 10SM FEW060 OVC075 M16/M25 A2965 RMK AO2 SLP051
                 T11561250 51033 =
2019-01-21 08:54 METAR KIZG 211354Z AUTO 24007KT 10SM OVC065 M16/M25 A2962 RMK AO2 SLP040
                 T11611250 =
2019-01-21 07:54 METAR KIZG 211254Z AUTO 00000KT 10SM OVC060 M16/M24 A2959 RMK AO2 SLP031
                 T11611239 =
2019-01-21 06:54 METAR KIZG 211154Z AUTO 00000KT 10SM OVC060 M16/M23 A2955 RMK AO2 SLP018 70061
                 T11561228 11150 21172 53019 =
2019-01-21 05:54 METAR KIZG 211054Z AUTO 23004KT 10SM OVC055 M16/M23 A2952 RMK AO2 SLP005
                 T11561228 =
2019-01-21 04:54 METAR KIZG 210954Z AUTO 00000KT 10SM OVC050 M15/M22 A2950 RMK AO2 SLP000
                 T11501217 =
2019-01-21 03:54 METAR KIZG 210854Z AUTO 19003KT 10SM OVC055 M16/M22 A2950 RMK AO2 SLP998
                 T11561217 53022 =
2019-01-21 02:54 METAR KIZG 210754Z AUTO 00000KT 10SM OVC055 M16/M21 A2947 RMK AO2 SLP990
                 T11561211 =
2019-01-21 01:54 METAR KIZG 210654Z AUTO 00000KT 10SM OVC055 M16/M22 A2945 RMK AO2 SLP984
                 T11561222 =
2019-01-21 00:54 METAR KIZG 210554Z AUTO 24004KT 10SM CLR M17/M20 A2943 RMK AO2 SLP977 T11721200
                 11089 21172 51030 =
2019-01-20 23:54 METAR KIZG 210454Z AUTO 00000KT 10SM FEW029 M15/M19 A2941 RMK AO2 SLP968
                 T11501194 410891150 =
2019-01-20 23:29 METAR KIZG 210429Z AUTO 19003KT 10SM SCT026 M14/M18 A2939 RMK AO2 T11391183 =
2019-01-20 22:54 METAR KIZG 210354Z AUTO 00000KT 10SM OVC028 M12/M19 A2939 RMK AO2 SLP961
                 T11221189 =
2019-01-20 22:19 METAR KIZG 210319Z AUTO 00000KT 10SM BKN028 M12/M17 A2937 RMK AO2 PRESRR
                 T11221172 =
2019-01-20 21:54 METAR KIZG 210254Z AUTO 00000KT 10SM SCT026 M11/M17 A2934 RMK AO2 SLP945
                 T11061172 53015 =
2019-01-20 21:47 METAR KIZG 210247Z AUTO 00000KT 10SM BKN026 BKN070 M11/M17 A2933 RMK AO2
                 T11061167 =
2019-01-20 20:54 METAR KIZG 210154Z AUTO 00000KT 10SM OVC070 M09/M11 A2931 RMK AO2 SLP933
                 T10941111 =
2019-01-20 19:54 METAR KIZG 210054Z AUTO 00000KT 10SM OVC031 M11/M12 A2929 RMK AO2 SLP930
                 T11061117 =
2019-01-20 19:14 METAR KIZG 210014Z AUTO 00000KT 10SM SCT019 BKN065 OVC080 M09/M11 A2929 RMK AO2
                 T10941111 =
2019-01-20 18:54 METAR KIZG 202354Z AUTO 00000KT 5SM BR SCT018 BKN029 OVC065 M09/M11 A2929 RMK
                 AO2 SNE47 SLP930 P0000 60020 T10941111 11094 21111 58007 =
2019-01-20 18:46 METAR KIZG 202346Z AUTO 00000KT 4SM -SN BR FEW018 SCT029 OVC065 M09/M11 A2929
                 RMK AO2 P0000 T10941111 =
2019-01-20 18:30 METAR KIZG 202330Z AUTO 00000KT 3SM -SN BR BKN029 OVC049 M09/M11 A2930 RMK AO2
                 P0000 T10941111 =
2019-01-20 18:03 METAR KIZG 202303Z AUTO 00000KT 2SM -SN BR OVC023 M09/M11 A2931 RMK AO2 P0000
                 T10941111 =
2019-01-20 17:54 METAR KIZG 202254Z AUTO 24003KT 3SM -SN BR OVC025 M10/M11 A2932 RMK AO2 SLP937
                 P0001 T11001111 =
2019-01-20 17:47 METAR KIZG 202247Z AUTO 00000KT 2 1/2SM -SN BR OVC029 M10/M12 A2931 RMK AO2
                 P0001 T11001117 =

Support USWX by starting your Amazon purchase here.